Time;durP1;ratioP1;P1;durP2;ratioP2;P2;SDS_P1;SDS_P2;PMS_P1;PMS_P2;Temp;Humidity;BMP_temperature;BMP_pressure;BME280_temperature;BME280_humidity;BME280_pressure;Samples;Min_cycle;Max_cycle;Signal;HPM_P1;HPM_P2
2023/10/19 00:01:15;;;;;;;9.77;6.07;;;;;11.10;98995.00;;;;5024498;28;20288;-73
2023/10/19 00:04:07;;;;;;;11.20;6.03;;;;;11.10;99001.00;;;;5021881;28;20727;-72
2023/10/19 00:06:54;;;;;;;9.40;6.27;;;;;11.10;98984.00;;;;5019497;28;20238;-74
2023/10/19 00:09:39;;;;;;;11.37;6.73;;;;;11.00;98975.00;;;;5021307;28;20280;-72
2023/10/19 00:12:26;;;;;;;11.70;6.07;;;;;11.00;98970.00;;;;5027073;28;20248;-71
2023/10/19 00:15:12;;;;;;;9.27;5.90;;;;;11.10;98978.00;;;;5026923;28;20234;-71
2023/10/19 00:18:05;;;;;;;11.27;7.30;;;;;11.20;98971.00;;;;5027774;28;20228;-73
2023/10/19 00:20:54;;;;;;;10.33;6.40;;;;;11.20;98971.00;;;;5027135;28;20233;-75
2023/10/19 00:23:40;;;;;;;11.47;6.73;;;;;11.20;98970.00;;;;5026008;28;20308;-72
2023/10/19 00:26:30;;;;;;;10.80;6.90;;;;;11.30;98966.00;;;;5026214;28;20722;-72
2023/10/19 00:29:30;;;;;;;10.10;6.97;;;;;11.20;98954.00;;;;5021077;28;20929;-73
2023/10/19 00:32:19;;;;;;;10.60;6.63;;;;;11.20;98949.00;;;;5022720;28;20329;-73
2023/10/19 00:35:26;;;;;;;10.60;7.17;;;;;11.20;98939.00;;;;5022328;28;20229;-70
2023/10/19 00:38:39;;;;;;;10.70;7.03;;;;;11.20;98944.00;;;;5025805;28;20233;-75
2023/10/19 00:41:29;;;;;;;12.03;6.87;;;;;11.30;98944.00;;;;5023284;28;20237;-75
2023/10/19 00:44:16;;;;;;;10.07;7.20;;;;;11.40;98943.00;;;;5019465;28;20344;-73
2023/10/19 00:47:07;;;;;;;10.80;6.83;;;;;11.30;98936.00;;;;5033491;28;20233;-72
2023/10/19 00:49:55;;;;;;;12.63;7.53;;;;;11.40;98936.00;;;;5021755;28;20237;-72
2023/10/19 00:52:43;;;;;;;10.60;6.73;;;;;11.40;98936.00;;;;5018960;28;20256;-71
2023/10/19 00:55:33;;;;;;;12.93;7.37;;;;;11.40;98927.00;;;;5022215;28;20734;-73
2023/10/19 00:58:28;;;;;;;10.10;6.97;;;;;11.40;98921.00;;;;5021425;28;20245;-73
2023/10/19 01:01:17;;;;;;;11.17;6.87;;;;;11.40;98922.00;;;;5021082;28;20229;-73
2023/10/19 01:04:04;;;;;;;11.07;7.17;;;;;11.30;98915.00;;;;5019972;28;20233;-73
2023/10/19 01:07:00;;;;;;;11.47;7.00;;;;;11.40;98917.00;;;;5025565;28;20232;-74
2023/10/19 01:09:47;;;;;;;11.20;7.37;;;;;11.40;98925.00;;;;5025914;28;20650;-73
2023/10/19 01:12:38;;;;;;;17.07;7.93;;;;;11.30;98899.00;;;;5023620;28;20241;-73
2023/10/19 01:15:29;;;;;;;14.30;8.33;;;;;11.40;98906.00;;;;5025561;28;20260;-73
2023/10/19 01:18:16;;;;;;;16.37;8.30;;;;;11.50;98907.00;;;;5025299;28;20237;-75
2023/10/19 01:21:06;;;;;;;12.60;7.50;;;;;11.50;98906.00;;;;5024991;28;20236;-72
2023/10/19 01:23:54;;;;;;;15.67;7.43;;;;;11.50;98910.00;;;;5025828;28;20241;-73
2023/10/19 01:26:41;;;;;;;11.73;7.87;;;;;11.60;98910.00;;;;5015725;28;20614;-73
2023/10/19 01:29:28;;;;;;;13.73;8.47;;;;;11.60;98902.00;;;;5025785;28;20361;-76
2023/10/19 01:32:15;;;;;;;12.03;7.60;;;;;11.60;98905.00;;;;5024849;28;20713;-70
2023/10/19 01:35:01;;;;;;;16.57;8.70;;;;;11.60;98891.00;;;;5025595;28;20291;-73
2023/10/19 01:37:47;;;;;;;13.00;8.23;;;;;11.60;98897.00;;;;5023517;28;20229;-73
2023/10/19 01:40:35;;;;;;;14.17;8.67;;;;;11.60;98894.00;;;;5023868;28;20256;-74
2023/10/19 01:43:21;;;;;;;13.07;8.33;;;;;11.60;98886.00;;;;5022963;28;20304;-73
2023/10/19 01:46:12;;;;;;;16.63;8.90;;;;;11.60;98886.00;;;;5016571;28;20229;-74
2023/10/19 01:48:58;;;;;;;12.80;8.23;;;;;11.60;98881.00;;;;5016477;28;20229;-74
2023/10/19 01:51:46;;;;;;;15.07;8.70;;;;;11.70;98886.00;;;;5021980;28;20632;-73
2023/10/19 01:54:34;;;;;;;16.30;9.60;;;;;11.70;98880.00;;;;5022217;28;20238;-75
2023/10/19 01:57:21;;;;;;;18.33;9.70;;;;;11.70;98870.00;;;;5019138;28;20896;-72
2023/10/19 02:00:11;;;;;;;15.50;8.83;;;;;11.70;98881.00;;;;5015593;28;20225;-71
2023/10/19 02:02:57;;;;;;;13.87;9.30;;;;;11.70;98877.00;;;;5025334;28;20617;-72
2023/10/19 02:05:43;;;;;;;16.33;9.30;;;;;11.70;98877.00;;;;5022674;28;20237;-73
2023/10/19 02:08:29;;;;;;;14.53;9.00;;;;;11.70;98877.00;;;;5025649;28;20237;-70
2023/10/19 02:11:17;;;;;;;17.37;9.97;;;;;11.80;98865.00;;;;5019168;28;20228;-74
2023/10/19 02:14:13;;;;;;;15.90;9.23;;;;;11.80;98864.00;;;;5023246;28;21068;-73
2023/10/19 02:17:02;;;;;;;15.93;9.30;;;;;11.80;98856.00;;;;5024955;28;20625;-72
2023/10/19 02:19:48;;;;;;;15.03;9.53;;;;;11.90;98855.00;;;;5024821;28;20356;-72
2023/10/19 02:22:35;;;;;;;18.37;10.07;;;;;11.90;98856.00;;;;5021383;28;20299;-72
2023/10/19 02:25:21;;;;;;;17.27;9.60;;;;;11.90;98854.00;;;;5023786;28;20290;-75
2023/10/19 02:28:09;;;;;;;21.33;11.30;;;;;11.90;98849.00;;;;5024508;28;20225;-74
2023/10/19 02:30:57;;;;;;;17.20;10.50;;;;;11.90;98845.00;;;;5024482;28;20229;-73
2023/10/19 02:33:46;;;;;;;17.60;9.70;;;;;11.90;98853.00;;;;5021721;28;20237;-73
2023/10/19 02:36:33;;;;;;;16.33;9.60;;;;;11.90;98839.00;;;;5024694;28;20241;-72
2023/10/19 02:39:19;;;;;;;18.03;10.13;;;;;11.90;98849.00;;;;5023014;28;20225;-72
2023/10/19 02:42:05;;;;;;;17.00;9.30;;;;;11.90;98836.00;;;;5024408;28;20240;-73
2023/10/19 02:44:52;;;;;;;15.67;9.80;;;;;11.90;98834.00;;;;5024516;28;20244;-72
2023/10/19 02:47:41;;;;;;;16.63;10.10;;;;;11.90;98843.00;;;;5020873;28;20233;-74
2023/10/19 02:50:27;;;;;;;17.67;9.77;;;;;11.90;98839.00;;;;5024719;28;20359;-72
2023/10/19 02:53:13;;;;;;;16.60;9.47;;;;;11.90;98837.00;;;;5017154;28;20404;-74
2023/10/19 02:56:01;;;;;;;16.63;9.57;;;;;12.00;98838.00;;;;5027896;28;20291;-72
2023/10/19 02:58:48;;;;;;;15.90;9.63;;;;;11.90;98825.00;;;;5025798;28;20236;-75
2023/10/19 03:01:35;;;;;;;18.50;10.00;;;;;12.00;98826.00;;;;5023691;28;20944;-72
2023/10/19 03:04:22;;;;;;;15.97;9.53;;;;;11.90;98829.00;;;;5025317;28;20229;-73
2023/10/19 03:07:09;;;;;;;15.47;9.23;;;;;12.00;98819.00;;;;5023713;28;20305;-74
2023/10/19 03:09:54;;;;;;;14.73;9.07;;;;;12.00;98822.00;;;;5022919;28;20299;-74
2023/10/19 03:12:41;;;;;;;20.87;10.03;;;;;12.00;98824.00;;;;5029258;28;20300;-73
2023/10/19 03:15:29;;;;;;;15.83;9.47;;;;;12.00;98823.00;;;;5019597;28;20237;-72
2023/10/19 03:18:15;;;;;;;13.13;8.60;;;;;12.00;98825.00;;;;5017612;28;20237;-73
2023/10/19 03:21:05;;;;;;;15.83;9.50;;;;;12.00;98819.00;;;;5011879;28;20305;-73
2023/10/19 03:23:50;;;;;;;16.27;9.70;;;;;12.00;98820.00;;;;5017638;28;20751;-73
2023/10/19 03:26:43;;;;;;;15.00;8.53;;;;;12.00;98808.00;;;;5016727;28;20241;-74
2023/10/19 03:29:31;;;;;;;15.23;9.07;;;;;12.00;98810.00;;;;5022965;28;20245;-74
2023/10/19 03:32:21;;;;;;;16.07;9.23;;;;;12.10;98812.00;;;;5014068;28;20323;-72
2023/10/19 03:35:08;;;;;;;18.93;9.40;;;;;12.00;98806.00;;;;5015734;28;20230;-72
2023/10/19 03:37:58;;;;;;;16.93;9.37;;;;;12.00;98808.00;;;;5020917;28;20356;-73
2023/10/19 03:40:51;;;;;;;16.87;10.07;;;;;12.00;98814.00;;;;5019658;28;20229;-72
2023/10/19 03:43:40;;;;;;;18.73;9.17;;;;;12.10;98803.00;;;;5019819;28;20308;-72
2023/10/19 03:46:31;;;;;;;16.10;9.33;;;;;12.00;98805.00;;;;5016271;28;20353;-73
2023/10/19 03:49:19;;;;;;;15.43;9.07;;;;;12.00;98807.00;;;;5020517;28;20226;-70
2023/10/19 03:54:59;;;;;;;16.57;9.97;;;;;12.00;98798.00;;;;5052688;27;20571;-73
2023/10/19 03:57:50;;;;;;;16.80;9.90;;;;;12.00;98794.00;;;;5028780;28;20244;-73
2023/10/19 04:00:37;;;;;;;14.07;9.03;;;;;12.00;98793.00;;;;5038618;28;20711;-73
2023/10/19 04:03:24;;;;;;;14.77;8.53;;;;;12.00;98783.00;;;;5033687;28;20357;-73
2023/10/19 04:06:13;;;;;;;23.40;10.07;;;;;12.00;98786.00;;;;5038845;28;20267;-73
2023/10/19 04:09:00;;;;;;;17.70;9.47;;;;;12.00;98782.00;;;;5038359;28;20371;-72
2023/10/19 04:11:52;;;;;;;14.23;9.27;;;;;12.10;98782.00;;;;5036509;28;20234;-72
2023/10/19 04:14:39;;;;;;;15.73;9.40;;;;;12.10;98779.00;;;;5035800;28;20701;-73
2023/10/19 04:17:26;;;;;;;14.47;9.50;;;;;12.10;98774.00;;;;5051084;28;20360;-73
2023/10/19 04:20:29;;;;;;;16.07;9.70;;;;;12.10;98776.00;;;;5053946;28;20282;-73
2023/10/19 04:23:15;;;;;;;15.70;9.63;;;;;12.10;98772.00;;;;5059630;28;20735;-76
2023/10/19 04:26:10;;;;;;;18.53;9.77;;;;;12.10;98765.00;;;;5057001;28;20728;-72
2023/10/19 04:28:59;;;;;;;18.20;9.53;;;;;12.10;98761.00;;;;5058958;28;20236;-74
2023/10/19 04:31:50;;;;;;;14.43;9.33;;;;;12.10;98766.00;;;;5048559;28;20232;-71
2023/10/19 04:34:36;;;;;;;17.90;9.50;;;;;12.10;98757.00;;;;5054006;28;20236;-74
2023/10/19 04:37:24;;;;;;;17.17;9.57;;;;;12.10;98763.00;;;;5057433;28;20252;-72
2023/10/19 04:40:11;;;;;;;16.87;9.60;;;;;12.10;98766.00;;;;5059683;28;20232;-72
2023/10/19 04:42:58;;;;;;;15.83;9.57;;;;;12.10;98764.00;;;;5051577;28;20256;-73
2023/10/19 04:45:46;;;;;;;17.73;9.67;;;;;12.10;98760.00;;;;5058247;28;20236;-71
2023/10/19 04:48:32;;;;;;;13.83;8.67;;;;;12.10;98751.00;;;;5054448;28;20228;-71
2023/10/19 04:51:18;;;;;;;17.13;8.73;;;;;12.10;98757.00;;;;5055657;28;20362;-74
2023/10/19 04:54:05;;;;;;;16.10;9.53;;;;;12.10;98757.00;;;;5058376;28;20236;-75
2023/10/19 04:56:55;;;;;;;13.20;8.60;;;;;12.20;98762.00;;;;5054456;28;20232;-74
2023/10/19 04:59:45;;;;;;;16.97;8.80;;;;;12.20;98754.00;;;;5054272;28;20698;-73
2023/10/19 05:02:32;;;;;;;13.87;8.27;;;;;12.20;98755.00;;;;5063334;28;20232;-74
2023/10/19 05:05:19;;;;;;;13.80;8.10;;;;;12.20;98752.00;;;;5044841;28;20820;-73
2023/10/19 05:08:06;;;;;;;15.07;8.70;;;;;12.20;98756.00;;;;5045360;28;20248;-74
2023/10/19 05:10:54;;;;;;;12.77;7.80;;;;;12.20;98756.00;;;;5040797;28;20237;-73
2023/10/19 05:13:40;;;;;;;13.57;7.80;;;;;12.20;98760.00;;;;5040657;28;20721;-72
2023/10/19 05:16:26;;;;;;;14.97;7.43;;;;;12.30;98758.00;;;;5032348;28;20387;-73
2023/10/19 05:19:14;;;;;;;15.47;7.23;;;;;12.30;98756.00;;;;5044924;28;20626;-73
2023/10/19 05:22:01;;;;;;;11.37;7.27;;;;;12.50;98759.00;;;;5026883;28;20233;-74
2023/10/19 05:24:47;;;;;;;16.63;8.07;;;;;12.50;98768.00;;;;5023443;28;20691;-74
2023/10/19 05:27:34;;;;;;;12.43;7.13;;;;;12.40;98755.00;;;;5018557;28;20240;-75
2023/10/19 05:30:22;;;;;;;13.37;7.53;;;;;12.50;98750.00;;;;5037968;28;20347;-73
2023/10/19 05:33:09;;;;;;;10.43;6.87;;;;;12.50;98758.00;;;;5026458;28;20245;-73
2023/10/19 05:35:56;;;;;;;13.77;7.03;;;;;12.50;98761.00;;;;5027772;28;20320;-73
2023/10/19 05:38:43;;;;;;;12.47;7.57;;;;;12.50;98772.00;;;;5032029;28;20236;-75
2023/10/19 05:41:31;;;;;;;13.57;7.37;;;;;12.60;98768.00;;;;5055295;28;20319;-74
2023/10/19 05:44:17;;;;;;;13.50;7.00;;;;;12.50;98779.00;;;;5032199;28;20307;-74
2023/10/19 05:47:04;;;;;;;17.47;6.90;;;;;12.50;98779.00;;;;5026611;28;20355;-74
2023/10/19 05:49:50;;;;;;;11.57;6.77;;;;;12.50;98781.00;;;;5055086;28;20243;-74
2023/10/19 05:52:38;;;;;;;13.53;5.97;;;;;12.50;98777.00;;;;5020318;28;20249;-74
2023/10/19 05:55:24;;;;;;;10.83;6.77;;;;;12.50;98782.00;;;;5020972;28;20256;-73
2023/10/19 05:58:11;;;;;;;11.47;5.97;;;;;12.50;98780.00;;;;5052181;28;20223;-74
2023/10/19 06:00:59;;;;;;;11.17;6.20;;;;;12.60;98775.00;;;;5051649;28;20240;-75
2023/10/19 06:03:46;;;;;;;10.43;6.00;;;;;12.60;98784.00;;;;5020694;28;20225;-75
2023/10/19 06:06:32;;;;;;;10.40;6.40;;;;;12.60;98784.00;;;;5023359;28;20789;-74
2023/10/19 06:09:20;;;;;;;9.90;5.77;;;;;12.60;98780.00;;;;5027935;28;20819;-74
2023/10/19 06:12:09;;;;;;;10.57;6.17;;;;;12.60;98784.00;;;;5017269;28;20237;-74
2023/10/19 06:14:55;;;;;;;8.97;5.20;;;;;12.70;98781.00;;;;5015205;28;20237;-75
2023/10/19 06:17:43;;;;;;;9.80;5.57;;;;;12.80;98788.00;;;;5027262;28;20229;-70
2023/10/19 06:20:30;;;;;;;9.10;5.20;;;;;12.80;98786.00;;;;5046182;28;20232;-71
2023/10/19 06:23:16;;;;;;;10.67;5.60;;;;;12.80;98796.00;;;;5024194;28;20229;-72
2023/10/19 06:26:12;;;;;;;15.03;5.90;;;;;12.80;98797.00;;;;5019593;28;20269;-73
2023/10/19 06:28:59;;;;;;;6.87;4.70;;;;;12.80;98798.00;;;;5015695;28;20265;-73
2023/10/19 06:31:46;;;;;;;8.13;4.97;;;;;12.80;98801.00;;;;5026696;28;20244;-72
2023/10/19 06:34:32;;;;;;;10.67;4.83;;;;;12.90;98797.00;;;;5020616;28;20309;-72
2023/10/19 06:37:19;;;;;;;7.97;4.80;;;;;12.90;98808.00;;;;5014111;28;21102;-74
2023/10/19 06:40:07;;;;;;;11.07;4.90;;;;;12.90;98805.00;;;;5022656;28;20244;-72
2023/10/19 06:42:56;;;;;;;6.73;4.30;;;;;13.00;98810.00;;;;5021050;28;20253;-71
2023/10/19 06:45:45;;;;;;;7.90;4.33;;;;;13.00;98812.00;;;;5015669;28;20237;-71
2023/10/19 06:48:31;;;;;;;7.70;4.77;;;;;13.10;98818.00;;;;5013014;28;20304;-71
2023/10/19 06:51:18;;;;;;;8.20;4.50;;;;;13.10;98815.00;;;;5017794;28;20262;-73
2023/10/19 06:54:08;;;;;;;7.50;4.50;;;;;13.20;98821.00;;;;5046910;28;20615;-72
2023/10/19 06:56:54;;;;;;;9.70;4.53;;;;;13.20;98818.00;;;;5049214;28;20240;-72
2023/10/19 06:59:43;;;;;;;6.23;4.00;;;;;13.20;98826.00;;;;5042181;28;20229;-72
2023/10/19 07:02:29;;;;;;;9.53;4.40;;;;;13.20;98823.00;;;;5052061;28;20744;-71
2023/10/19 07:05:21;;;;;;;6.93;4.83;;;;;13.20;98824.00;;;;5045384;28;20379;-73
2023/10/19 07:08:08;;;;;;;7.17;4.27;;;;;13.20;98837.00;;;;5040485;28;20233;-72
2023/10/19 07:10:55;;;;;;;7.80;3.80;;;;;13.30;98841.00;;;;5040635;28;20249;-73
2023/10/19 07:13:41;;;;;;;7.53;4.27;;;;;13.30;98834.00;;;;5038473;28;20222;-73
2023/10/19 07:16:29;;;;;;;7.03;4.20;;;;;13.30;98826.00;;;;5038860;28;20238;-73
2023/10/19 07:19:16;;;;;;;6.07;4.40;;;;;13.30;98830.00;;;;5034619;28;20229;-71
2023/10/19 07:22:04;;;;;;;6.43;4.13;;;;;13.40;98831.00;;;;5040808;28;20332;-71
2023/10/19 07:24:51;;;;;;;7.37;4.20;;;;;13.40;98835.00;;;;5038303;28;21638;-71
2023/10/19 07:27:37;;;;;;;8.33;5.03;;;;;13.40;98837.00;;;;5042279;28;20225;-72
2023/10/19 07:30:26;;;;;;;8.33;4.17;;;;;13.50;98832.00;;;;5041349;28;20231;-72
2023/10/19 07:33:17;;;;;;;6.83;4.33;;;;;13.50;98833.00;;;;5029403;28;20247;-72
2023/10/19 07:36:08;;;;;;;9.07;4.50;;;;;13.50;98832.00;;;;5029842;28;20239;-72
2023/10/19 07:38:55;;;;;;;4.93;3.93;;;;;13.50;98838.00;;;;5033345;28;20336;-70
2023/10/19 07:41:41;;;;;;;7.17;4.47;;;;;13.60;98833.00;;;;5046540;28;20352;-72
2023/10/19 07:44:30;;;;;;;8.40;3.80;;;;;13.60;98842.00;;;;5042126;28;20250;-71
2023/10/19 07:47:16;;;;;;;5.50;4.10;;;;;13.60;98850.00;;;;5042472;28;20249;-69
2023/10/19 07:50:05;;;;;;;5.40;3.97;;;;;13.60;98846.00;;;;5043459;28;20304;-71
2023/10/19 07:52:53;;;;;;;8.67;4.07;;;;;13.60;98845.00;;;;5040582;28;20236;-71
2023/10/19 07:55:40;;;;;;;7.33;4.20;;;;;13.60;98849.00;;;;5015272;28;20241;-72
2023/10/19 07:58:27;;;;;;;7.03;4.07;;;;;13.70;98851.00;;;;5014503;28;20385;-72
2023/10/19 08:01:14;;;;;;;7.27;3.87;;;;;13.70;98850.00;;;;5015033;28;20233;-73
2023/10/19 08:04:00;;;;;;;8.83;4.00;;;;;13.70;98855.00;;;;5038044;28;20236;-73
2023/10/19 08:06:48;;;;;;;5.70;3.47;;;;;13.80;98852.00;;;;5025378;28;20230;-71
2023/10/19 08:09:35;;;;;;;8.43;3.90;;;;;13.80;98857.00;;;;5035458;28;20233;-71
2023/10/19 08:12:22;;;;;;;7.10;3.90;;;;;13.80;98852.00;;;;5026718;28;20249;-70
2023/10/19 08:15:11;;;;;;;9.63;4.43;;;;;13.90;98860.00;;;;5041783;28;20292;-70
2023/10/19 08:17:57;;;;;;;6.97;3.80;;;;;13.90;98854.00;;;;5039285;28;20277;-71
2023/10/19 08:20:45;;;;;;;9.33;3.80;;;;;13.90;98850.00;;;;5038104;28;20250;-71
2023/10/19 08:23:32;;;;;;;8.97;4.03;;;;;13.90;98849.00;;;;5041781;28;20332;-70
2023/10/19 08:26:19;;;;;;;7.10;3.67;;;;;14.00;98844.00;;;;5034773;28;20233;-73
2023/10/19 08:29:12;;;;;;;6.23;3.70;;;;;14.00;98843.00;;;;5035683;28;20237;-71
2023/10/19 08:31:59;;;;;;;8.33;3.97;;;;;14.10;98844.00;;;;5045555;28;20358;-72
2023/10/19 08:34:45;;;;;;;6.43;3.63;;;;;14.20;98851.00;;;;5042471;28;20879;-72
2023/10/19 08:37:32;;;;;;;6.93;4.10;;;;;14.30;98851.00;;;;5043092;28;20240;-69
2023/10/19 08:40:21;;;;;;;7.60;4.07;;;;;14.40;98843.00;;;;5041274;28;20289;-70
2023/10/19 08:43:13;;;;;;;10.27;4.23;;;;;14.50;98857.00;;;;5041569;28;20368;-72
2023/10/19 08:45:59;;;;;;;8.33;4.13;;;;;14.60;98853.00;;;;5017329;28;20352;-70
2023/10/19 08:48:46;;;;;;;8.50;3.70;;;;;14.60;98850.00;;;;5014733;28;20252;-70
2023/10/19 08:51:35;;;;;;;5.20;4.20;;;;;14.80;98847.00;;;;5027764;28;20331;-70
2023/10/19 08:54:21;;;;;;;10.87;3.67;;;;;14.90;98847.00;;;;5041854;28;20236;-71
2023/10/19 08:57:10;;;;;;;7.00;4.10;;;;;14.90;98838.00;;;;5045772;28;20239;-71
2023/10/19 08:59:58;;;;;;;6.70;3.83;;;;;15.00;98848.00;;;;5032246;28;20235;-71
2023/10/19 09:02:45;;;;;;;6.30;3.73;;;;;15.00;98841.00;;;;5033977;28;20725;-71
2023/10/19 09:05:31;;;;;;;8.17;3.70;;;;;15.10;98833.00;;;;5053472;28;20288;-73
2023/10/19 09:08:18;;;;;;;7.67;4.10;;;;;15.20;98831.00;;;;5052243;28;20608;-71
2023/10/19 09:11:08;;;;;;;9.57;3.83;;;;;15.40;98831.00;;;;5021057;28;20730;-70
2023/10/19 09:13:57;;;;;;;6.90;3.87;;;;;15.50;98829.00;;;;5020687;28;20607;-73
2023/10/19 09:16:56;;;;;;;10.20;4.77;;;;;15.60;98829.00;;;;5047849;28;20236;-72
2023/10/19 09:19:43;;;;;;;6.00;4.20;;;;;15.70;98826.00;;;;5035883;28;20230;-70
2023/10/19 09:22:36;;;;;;;8.13;5.60;;;;;15.80;98826.00;;;;5038734;28;20277;-70
2023/10/19 09:25:23;;;;;;;9.47;5.00;;;;;16.00;98827.00;;;;5024348;28;20318;-71
2023/10/19 09:28:10;;;;;;;11.07;4.67;;;;;16.00;98830.00;;;;5035358;28;20243;-70
2023/10/19 09:30:58;;;;;;;10.07;4.80;;;;;16.20;98823.00;;;;5037897;28;20255;-71
2023/10/19 09:33:47;;;;;;;9.40;4.60;;;;;16.30;98821.00;;;;5058482;28;20310;-72
2023/10/19 09:36:33;;;;;;;11.53;4.20;;;;;16.40;98821.00;;;;5055388;28;20264;-72
2023/10/19 09:39:19;;;;;;;7.53;4.47;;;;;16.40;98815.00;;;;5049507;28;20229;-70
2023/10/19 09:42:10;;;;;;;8.57;4.67;;;;;16.50;98821.00;;;;5035249;28;20352;-71
2023/10/19 09:45:05;;;;;;;14.27;6.13;;;;;16.60;98817.00;;;;5022097;28;20761;-71
2023/10/19 09:47:54;;;;;;;8.33;5.23;;;;;16.60;98812.00;;;;5015514;28;20695;-70
2023/10/19 09:50:40;;;;;;;7.80;4.87;;;;;16.60;98817.00;;;;5021282;28;20226;-70
2023/10/19 09:53:28;;;;;;;7.47;4.10;;;;;16.60;98813.00;;;;5051427;28;20350;-70
2023/10/19 09:56:19;;;;;;;7.30;3.90;;;;;16.70;98814.00;;;;5054436;28;20285;-70
2023/10/19 09:59:07;;;;;;;8.90;3.57;;;;;16.80;98816.00;;;;5016741;28;20291;-71
2023/10/19 10:02:09;;;;;;;7.50;3.80;;;;;16.80;98825.00;;;;5047485;28;20236;-71
2023/10/19 10:04:57;;;;;;;5.23;3.10;;;;;16.80;98823.00;;;;5037532;28;20225;-69
2023/10/19 10:07:43;;;;;;;22.53;3.27;;;;;16.80;98821.00;;;;5045539;28;20236;-71
2023/10/19 10:10:29;;;;;;;5.60;3.17;;;;;16.80;98821.00;;;;5043780;28;20363;-70
2023/10/19 10:13:39;;;;;;;4.87;2.90;;;;;16.80;98822.00;;;;5041948;28;20221;-70
2023/10/19 10:16:27;;;;;;;4.13;2.70;;;;;16.80;98822.00;;;;5038587;28;20752;-70
2023/10/19 10:19:21;;;;;;;8.00;2.87;;;;;16.90;98814.00;;;;5041123;28;20225;-70
2023/10/19 10:22:14;;;;;;;5.93;3.40;;;;;17.00;98819.00;;;;5046039;28;20331;-71
2023/10/19 10:25:00;;;;;;;5.17;2.80;;;;;17.20;98816.00;;;;5043164;28;20225;-71
2023/10/19 10:27:51;;;;;;;6.67;3.60;;;;;17.70;98821.00;;;;5043447;28;20278;-73
2023/10/19 10:30:37;;;;;;;14.27;2.93;;;;;18.00;98813.00;;;;5037534;28;20232;-70
2023/10/19 10:33:40;;;;;;;4.00;2.50;;;;;18.10;98806.00;;;;5045551;28;20732;-70
2023/10/19 10:36:27;;;;;;;4.93;2.30;;;;;18.00;98805.00;;;;5046403;28;20737;-71
2023/10/19 10:39:16;;;;;;;5.10;2.30;;;;;18.20;98807.00;;;;5036203;28;20253;-71
2023/10/19 10:42:05;;;;;;;8.13;2.13;;;;;18.40;98795.00;;;;5039413;28;20237;-71
2023/10/19 10:44:55;;;;;;;6.13;2.67;;;;;18.70;98795.00;;;;5037223;28;20227;-70
2023/10/19 10:47:45;;;;;;;4.27;2.23;;;;;19.10;98800.00;;;;5036240;28;20275;-70
2023/10/19 10:50:32;;;;;;;4.57;2.27;;;;;19.30;98799.00;;;;5041254;28;20240;-71
2023/10/19 10:53:18;;;;;;;11.07;1.90;;;;;19.40;98797.00;;;;5048841;28;20233;-72
2023/10/19 10:56:06;;;;;;;3.80;2.10;;;;;19.20;98803.00;;;;5046086;28;20237;-71
2023/10/19 10:58:53;;;;;;;3.17;1.40;;;;;19.10;98804.00;;;;5055932;28;20274;-73
2023/10/19 11:01:41;;;;;;;6.63;2.20;;;;;18.90;98799.00;;;;5023604;28;20234;-71
2023/10/19 11:04:27;;;;;;;7.50;1.80;;;;;18.90;98800.00;;;;5028124;28;20230;-71
2023/10/19 11:07:19;;;;;;;6.53;2.13;;;;;18.90;98796.00;;;;5044031;28;20706;-70
2023/10/19 11:10:09;;;;;;;7.77;2.33;;;;;19.20;98783.00;;;;5043159;28;20736;-72
2023/10/19 11:13:02;;;;;;;5.73;2.17;;;;;19.00;98794.00;;;;5037521;28;20230;-69
2023/10/19 11:15:50;;;;;;;5.47;2.13;;;;;18.80;98793.00;;;;5030624;28;20255;-71
2023/10/19 11:18:39;;;;;;;7.50;2.20;;;;;18.60;98781.00;;;;5037619;28;20246;-70
2023/10/19 11:21:25;;;;;;;4.97;2.43;;;;;18.50;98778.00;;;;5054320;28;20234;-70
2023/10/19 11:24:26;;;;;;;6.40;2.50;;;;;18.40;98776.00;;;;5035366;28;20240;-71
2023/10/19 11:27:12;;;;;;;4.40;2.07;;;;;18.50;98772.00;;;;5038224;28;20306;-71
2023/10/19 11:30:04;;;;;;;4.63;2.07;;;;;18.60;98765.00;;;;5045090;28;20243;-72
2023/10/19 11:32:52;;;;;;;4.97;2.20;;;;;18.90;98762.00;;;;5044895;28;20233;-72
2023/10/19 11:35:38;;;;;;;8.40;2.40;;;;;19.10;98758.00;;;;5038994;28;20831;-71
2023/10/19 11:38:24;;;;;;;4.33;2.20;;;;;19.30;98768.00;;;;5041118;28;20325;-70
2023/10/19 11:41:12;;;;;;;7.13;2.30;;;;;19.50;98765.00;;;;5043985;28;20230;-73
2023/10/19 11:43:59;;;;;;;4.53;2.17;;;;;19.90;98765.00;;;;5042143;28;20226;-72
2023/10/19 11:46:48;;;;;;;3.13;2.03;;;;;20.20;98761.00;;;;5041743;28;20290;-71
2023/10/19 11:49:34;;;;;;;6.90;2.13;;;;;20.20;98742.00;;;;5036675;28;20302;-72
2023/10/19 11:52:21;;;;;;;4.10;2.03;;;;;20.30;98731.00;;;;5043039;28;20385;-70
2023/10/19 11:55:09;;;;;;;5.13;2.10;;;;;20.30;98736.00;;;;5029274;28;20233;-71
2023/10/19 11:57:55;;;;;;;6.57;2.20;;;;;20.20;98735.00;;;;5044107;28;22053;-70
2023/10/19 12:00:43;;;;;;;6.03;2.20;;;;;19.90;98732.00;;;;5038005;28;20259;-72
2023/10/19 12:03:31;;;;;;;7.00;2.47;;;;;19.80;98724.00;;;;5041271;28;20231;-72
2023/10/19 12:06:19;;;;;;;6.27;2.17;;;;;19.70;98731.00;;;;5035954;28;20275;-69
2023/10/19 12:09:14;;;;;;;4.03;1.97;;;;;19.50;98735.00;;;;5042375;28;20281;-72
2023/10/19 12:12:00;;;;;;;5.87;2.10;;;;;19.50;98735.00;;;;5041172;28;20404;-70
2023/10/19 12:14:46;;;;;;;7.67;2.00;;;;;19.40;98732.00;;;;5042671;28;20239;-70
2023/10/19 12:17:33;;;;;;;7.70;2.43;;;;;19.50;98730.00;;;;5037033;28;20243;-70
2023/10/19 12:20:21;;;;;;;7.20;2.10;;;;;19.80;98724.00;;;;5037726;28;20278;-71
2023/10/19 12:23:08;;;;;;;6.33;2.20;;;;;20.20;98717.00;;;;5045768;28;20227;-72
2023/10/19 12:25:54;;;;;;;3.40;2.00;;;;;20.50;98719.00;;;;5046223;28;20819;-72
2023/10/19 12:28:46;;;;;;;5.07;1.90;;;;;20.50;98725.00;;;;5038867;28;20237;-71
2023/10/19 12:31:34;;;;;;;3.67;2.10;;;;;20.30;98711.00;;;;5016210;28;20249;-71
2023/10/19 12:34:22;;;;;;;5.33;2.00;;;;;20.20;98712.00;;;;5019917;28;20298;-74
2023/10/19 12:37:12;;;;;;;3.87;1.70;;;;;19.90;98712.00;;;;5022423;28;20236;-72
2023/10/19 12:39:59;;;;;;;4.17;1.80;;;;;19.80;98710.00;;;;5026725;28;20283;-72
2023/10/19 12:42:45;;;;;;;7.20;1.57;;;;;19.60;98703.00;;;;5032759;28;20307;-70
2023/10/19 12:45:36;;;;;;;4.93;1.83;;;;;19.50;98701.00;;;;5046071;28;20239;-71
2023/10/19 12:48:25;;;;;;;3.10;1.60;;;;;19.40;98709.00;;;;5020361;28;20244;-71
2023/10/19 12:51:12;;;;;;;5.30;1.70;;;;;19.30;98702.00;;;;5039959;28;20223;-72
2023/10/19 12:54:03;;;;;;;3.80;1.70;;;;;19.20;98721.00;;;;5054308;28;20252;-71
2023/10/19 12:56:49;;;;;;;3.03;1.53;;;;;19.10;98721.00;;;;5022591;28;20240;-71
2023/10/19 12:59:37;;;;;;;3.67;1.80;;;;;19.10;98728.00;;;;5045735;28;20653;-71
2023/10/19 13:02:24;;;;;;;4.53;1.90;;;;;19.00;98735.00;;;;5020521;28;20284;-72
2023/10/19 13:05:12;;;;;;;3.83;2.07;;;;;19.00;98731.00;;;;5018330;28;20228;-74
2023/10/19 13:07:59;;;;;;;7.53;1.97;;;;;18.80;98732.00;;;;5037854;28;20238;-74
2023/10/19 13:10:50;;;;;;;6.23;1.90;;;;;18.80;98741.00;;;;5030616;28;20235;-75
2023/10/19 13:13:39;;;;;;;2.87;1.80;;;;;18.70;98739.00;;;;5050389;28;20230;-73
2023/10/19 13:16:25;;;;;;;7.50;2.07;;;;;18.60;98735.00;;;;5048962;28;20235;-74
2023/10/19 13:19:13;;;;;;;3.30;1.90;;;;;18.60;98732.00;;;;5009414;28;20246;-74
2023/10/19 13:22:05;;;;;;;10.97;2.27;;;;;18.60;98743.00;;;;5023121;28;20301;-72
2023/10/19 13:24:51;;;;;;;4.63;2.10;;;;;18.50;98728.00;;;;5026233;28;20230;-73
2023/10/19 13:27:39;;;;;;;6.13;1.80;;;;;18.50;98726.00;;;;5021288;28;20308;-74
2023/10/19 13:30:26;;;;;;;2.37;1.70;;;;;18.40;98713.00;;;;5016580;28;20230;-73
2023/10/19 13:33:13;;;;;;;4.43;1.80;;;;;18.40;98728.00;;;;5011515;28;20238;-74
2023/10/19 13:35:59;;;;;;;5.43;1.77;;;;;18.40;98729.00;;;;5022034;28;20233;-73
2023/10/19 13:38:46;;;;;;;3.70;1.70;;;;;18.40;98723.00;;;;5014909;28;20241;-74
2023/10/19 13:41:32;;;;;;;3.17;1.60;;;;;18.40;98728.00;;;;5017323;28;20279;-72
2023/10/19 13:44:22;;;;;;;3.93;2.07;;;;;18.40;98720.00;;;;5025811;28;20756;-74
2023/10/19 13:47:08;;;;;;;7.80;1.80;;;;;18.30;98722.00;;;;5010273;28;20238;-73
2023/10/19 13:49:55;;;;;;;5.23;2.07;;;;;18.20;98712.00;;;;5021666;28;20596;-73
2023/10/19 13:52:41;;;;;;;8.40;1.90;;;;;18.10;98713.00;;;;5036617;28;20301;-75
2023/10/19 13:55:28;;;;;;;6.57;1.80;;;;;18.10;98714.00;;;;5053370;28;20737;-76
2023/10/19 13:58:15;;;;;;;3.17;1.93;;;;;18.10;98709.00;;;;5019478;28;20240;-72
2023/10/19 14:01:03;;;;;;;3.40;1.53;;;;;18.00;98709.00;;;;5018726;28;20326;-73